LNR023 LFPG-UDYZ
Flight info
| Callsign | LNR023 |
|---|---|
| Flight time | N/A |
| Altitude | 35000 |
| Route | LANVI DCT BEGAR DCT TRA DCT GAMSA DCT UMVEG DCT ABTAN DCT GRZ DCT NALOX DCT MOPUG DCT ASNEL/N0452F370 DCT UDROS UN743 GAKSU UT310 SIN UN644 KARDE UL851 TBN UP146 YAVUZ/N0441F270 B374 INDUR |
| Aircraft | A320/M-SDE3FGHIRWY/LB1 |
Departure
| Time | N/A |
|---|---|
| Airport | Charles de Gaulle International Airport (LFPG) |
Arrival
| Time | 2026-05-05 12:48 |
|---|---|
| Airport | Zvartnots International Airport (UDYZ) |
| Time | Latitude | Longitude | Altitude | Speed | Heading |
|---|---|---|---|---|---|
| 2026-05-05 09:47 | 46.84804 | 16.95301 | 34958 ft | 471 kts | 105° |
| 2026-05-05 09:47 | 46.84040 | 16.99959 | 34958 ft | 471 kts | 104° |
| 2026-05-05 09:47 | 46.82504 | 17.09274 | 34962 ft | 471 kts | 104° |
| 2026-05-05 09:48 | 46.80965 | 17.18579 | 34968 ft | 471 kts | 105° |
| 2026-05-05 09:48 | 46.79417 | 17.27883 | 34968 ft | 472 kts | 105° |
| 2026-05-05 09:49 | 46.77863 | 17.37185 | 34968 ft | 471 kts | 105° |
| 2026-05-05 09:49 | 46.76304 | 17.46411 | 34977 ft | 470 kts | 104° |
| 2026-05-05 09:50 | 46.74739 | 17.55679 | 34980 ft | 470 kts | 105° |
| 2026-05-05 09:50 | 46.73166 | 17.64931 | 34983 ft | 470 kts | 105° |
| 2026-05-05 09:51 | 46.71585 | 17.74176 | 34977 ft | 469 kts | 105° |
| 2026-05-05 09:51 | 46.70000 | 17.83391 | 34991 ft | 469 kts | 105° |
| 2026-05-05 09:52 | 46.68407 | 17.92612 | 34992 ft | 469 kts | 105° |
| 2026-05-05 09:52 | 46.66807 | 18.01819 | 34995 ft | 468 kts | 105° |
| 2026-05-05 09:53 | 46.65307 | 18.10343 | 34989 ft | 467 kts | 106° |
| 2026-05-05 09:53 | 46.63653 | 18.19496 | 35009 ft | 467 kts | 105° |
| 2026-05-05 09:54 | 46.62074 | 18.28678 | 35011 ft | 467 kts | 105° |
| 2026-05-05 09:54 | 46.60481 | 18.37834 | 35011 ft | 466 kts | 105° |
| 2026-05-05 09:55 | 46.58855 | 18.46984 | 35003 ft | 466 kts | 105° |
| 2026-05-05 09:55 | 46.57215 | 18.56100 | 35012 ft | 466 kts | 105° |
| 2026-05-05 09:56 | 46.55579 | 18.65144 | 35008 ft | 466 kts | 105° |
| 2026-05-05 09:56 | 46.53931 | 18.74241 | 35002 ft | 466 kts | 105° |
| 2026-05-05 09:57 | 46.52283 | 18.83352 | 35005 ft | 466 kts | 105° |
| 2026-05-05 09:57 | 46.50634 | 18.92403 | 35002 ft | 466 kts | 105° |
| 2026-05-05 09:58 | 46.48949 | 19.01521 | 35002 ft | 466 kts | 105° |
| 2026-05-05 09:58 | 46.47278 | 19.10620 | 35004 ft | 466 kts | 105° |
| 2026-05-05 09:59 | 46.45597 | 19.19707 | 35002 ft | 466 kts | 105° |
| 2026-05-05 09:59 | 46.43895 | 19.28791 | 35012 ft | 466 kts | 105° |
| 2026-05-05 10:00 | 46.42194 | 19.37870 | 35016 ft | 466 kts | 105° |
| 2026-05-05 10:00 | 46.40490 | 19.46942 | 35017 ft | 466 kts | 105° |
| 2026-05-05 10:01 | 46.38786 | 19.55952 | 35022 ft | 466 kts | 105° |
| 2026-05-05 10:01 | 46.37068 | 19.65003 | 35024 ft | 466 kts | 105° |
| 2026-05-05 10:02 | 46.35341 | 19.74051 | 35024 ft | 465 kts | 105° |
| 2026-05-05 10:02 | 46.33612 | 19.83066 | 35024 ft | 465 kts | 105° |
| 2026-05-05 10:03 | 46.31872 | 19.92087 | 35034 ft | 465 kts | 105° |
| 2026-05-05 10:03 | 46.30128 | 20.01095 | 35031 ft | 465 kts | 105° |
| 2026-05-05 10:04 | 46.28385 | 20.10085 | 35029 ft | 465 kts | 105° |
| 2026-05-05 10:04 | 46.26634 | 20.19066 | 35017 ft | 465 kts | 105° |
| 2026-05-05 10:05 | 46.24864 | 20.28070 | 35031 ft | 465 kts | 105° |
| 2026-05-05 10:05 | 46.23095 | 20.37051 | 35022 ft | 464 kts | 105° |
| 2026-05-05 10:06 | 46.21315 | 20.46018 | 35023 ft | 465 kts | 105° |
| 2026-05-05 10:06 | 46.19524 | 20.54991 | 35028 ft | 464 kts | 105° |
| 2026-05-05 10:07 | 46.17725 | 20.63950 | 35025 ft | 464 kts | 105° |
| 2026-05-05 10:07 | 46.15881 | 20.72893 | 35022 ft | 465 kts | 107° |
| 2026-05-05 10:08 | 46.13730 | 20.81619 | 35032 ft | 465 kts | 110° |
| 2026-05-05 10:08 | 46.11376 | 20.90311 | 35040 ft | 465 kts | 110° |
| 2026-05-05 10:09 | 46.09036 | 20.99027 | 35048 ft | 465 kts | 110° |
| 2026-05-05 10:09 | 46.06763 | 21.07746 | 35051 ft | 465 kts | 109° |
| 2026-05-05 10:10 | 46.04510 | 21.16424 | 35056 ft | 465 kts | 109° |
| 2026-05-05 10:10 | 46.02223 | 21.25146 | 35050 ft | 465 kts | 109° |
| 2026-05-05 10:11 | 45.99921 | 21.33869 | 35049 ft | 465 kts | 109° |
| 2026-05-05 10:11 | 45.97635 | 21.42520 | 35049 ft | 465 kts | 109° |
| 2026-05-05 10:12 | 45.95326 | 21.51219 | 35050 ft | 466 kts | 109° |
| 2026-05-05 10:12 | 45.93011 | 21.59921 | 35027 ft | 466 kts | 109° |
| 2026-05-05 10:13 | 45.90678 | 21.68630 | 35027 ft | 467 kts | 109° |
| 2026-05-05 10:13 | 45.88338 | 21.77337 | 35025 ft | 467 kts | 109° |
| 2026-05-05 10:14 | 45.85994 | 21.86032 | 35039 ft | 467 kts | 109° |
| 2026-05-05 10:14 | 45.83645 | 21.94737 | 35036 ft | 467 kts | 109° |
| 2026-05-05 10:15 | 45.81285 | 22.03424 | 35035 ft | 468 kts | 109° |
| 2026-05-05 10:15 | 45.78914 | 22.12105 | 35035 ft | 468 kts | 109° |
| 2026-05-05 10:16 | 45.76538 | 22.20780 | 35044 ft | 468 kts | 109° |
| 2026-05-05 10:16 | 45.74559 | 22.27993 | 35043 ft | 467 kts | 109° |
| 2026-05-05 10:17 | 45.71793 | 22.38057 | 35043 ft | 467 kts | 109° |
| 2026-05-05 10:17 | 45.69406 | 22.46700 | 35042 ft | 467 kts | 109° |
| 2026-05-05 10:18 | 45.67413 | 22.53887 | 35055 ft | 467 kts | 109° |
| 2026-05-05 10:18 | 45.65012 | 22.62522 | 35053 ft | 466 kts | 109° |
| 2026-05-05 10:19 | 45.62610 | 22.71134 | 35049 ft | 466 kts | 109° |
| 2026-05-05 10:19 | 45.60199 | 22.79721 | 35049 ft | 466 kts | 109° |
| 2026-05-05 10:20 | 45.57784 | 22.88300 | 35064 ft | 465 kts | 109° |
| 2026-05-05 10:20 | 45.55361 | 22.96866 | 35060 ft | 465 kts | 110° |
| 2026-05-05 10:21 | 45.52951 | 23.05373 | 35059 ft | 465 kts | 110° |
| 2026-05-05 10:21 | 45.50526 | 23.13920 | 35057 ft | 465 kts | 110° |
| 2026-05-05 10:22 | 45.48092 | 23.22466 | 35072 ft | 464 kts | 109° |
| 2026-05-05 10:22 | 45.45648 | 23.30992 | 35073 ft | 464 kts | 109° |
| 2026-05-05 10:23 | 45.43195 | 23.39505 | 35069 ft | 464 kts | 109° |
| 2026-05-05 10:23 | 45.40744 | 23.48013 | 35067 ft | 464 kts | 109° |
| 2026-05-05 10:24 | 45.38294 | 23.56508 | 35067 ft | 464 kts | 110° |
| 2026-05-05 10:24 | 45.35837 | 23.64992 | 35063 ft | 464 kts | 110° |
| 2026-05-05 10:25 | 45.33370 | 23.73488 | 35062 ft | 464 kts | 110° |
| 2026-05-05 10:25 | 45.30906 | 23.81904 | 35061 ft | 464 kts | 110° |
| 2026-05-05 10:26 | 45.28416 | 23.90376 | 35075 ft | 463 kts | 110° |
| 2026-05-05 10:26 | 45.25933 | 23.98831 | 35067 ft | 463 kts | 110° |
| 2026-05-05 10:27 | 45.23447 | 24.07270 | 35060 ft | 463 kts | 110° |
| 2026-05-05 10:27 | 45.20950 | 24.15698 | 35052 ft | 463 kts | 110° |
| 2026-05-05 10:28 | 45.18450 | 24.24117 | 35067 ft | 463 kts | 110° |
| 2026-05-05 10:28 | 45.15940 | 24.32522 | 35055 ft | 463 kts | 110° |
| 2026-05-05 10:29 | 45.13423 | 24.40920 | 35049 ft | 463 kts | 110° |
| 2026-05-05 10:29 | 45.10904 | 24.49322 | 35045 ft | 463 kts | 110° |
| 2026-05-05 10:30 | 45.08383 | 24.57709 | 35043 ft | 463 kts | 110° |
| 2026-05-05 10:30 | 45.05868 | 24.66032 | 35035 ft | 463 kts | 110° |
| 2026-05-05 10:31 | 45.03317 | 24.74425 | 35033 ft | 463 kts | 110° |
| 2026-05-05 10:31 | 45.00772 | 24.82788 | 35036 ft | 464 kts | 110° |
| 2026-05-05 10:32 | 44.98218 | 24.91173 | 35049 ft | 463 kts | 110° |
| 2026-05-05 10:32 | 44.95664 | 24.99528 | 35052 ft | 463 kts | 110° |
| 2026-05-05 10:33 | 44.93101 | 25.07871 | 35044 ft | 463 kts | 110° |
| 2026-05-05 10:33 | 44.90525 | 25.16210 | 35043 ft | 463 kts | 111° |
| 2026-05-05 10:34 | 44.87954 | 25.24525 | 35053 ft | 463 kts | 111° |
| 2026-05-05 10:34 | 44.85380 | 25.32839 | 35058 ft | 463 kts | 111° |
| 2026-05-05 10:35 | 44.82796 | 25.41152 | 35054 ft | 463 kts | 111° |
| 2026-05-05 10:35 | 44.80208 | 25.49443 | 35068 ft | 462 kts | 111° |
| 2026-05-05 10:36 | 44.77614 | 25.57729 | 35052 ft | 462 kts | 111° |
| 2026-05-05 10:36 | 44.75013 | 25.66005 | 35050 ft | 462 kts | 111° |
| 2026-05-05 10:37 | 44.72402 | 25.74263 | 35049 ft | 462 kts | 111° |
| 2026-05-05 10:37 | 44.69791 | 25.82538 | 35076 ft | 462 kts | 111° |
| 2026-05-05 10:38 | 44.67182 | 25.90790 | 35073 ft | 462 kts | 111° |
| 2026-05-05 10:38 | 44.64566 | 25.99030 | 35072 ft | 462 kts | 111° |
| 2026-05-05 10:39 | 44.61940 | 26.07254 | 35069 ft | 461 kts | 112° |
| 2026-05-05 10:39 | 44.59298 | 26.15474 | 35082 ft | 461 kts | 112° |
| 2026-05-05 10:40 | 44.56659 | 26.23675 | 35078 ft | 460 kts | 112° |
| 2026-05-05 10:40 | 44.54032 | 26.31812 | 35065 ft | 460 kts | 112° |
| 2026-05-05 10:41 | 44.51150 | 26.39850 | 35064 ft | 460 kts | 116° |
| 2026-05-05 10:41 | 44.48014 | 26.47674 | 35074 ft | 461 kts | 117° |
| 2026-05-05 10:42 | 44.43280 | 26.59380 | 35067 ft | 460 kts | 117° |
| 2026-05-05 10:43 | 44.40191 | 26.67208 | 35063 ft | 460 kts | 116° |
| 2026-05-05 10:43 | 44.37125 | 26.74995 | 35060 ft | 460 kts | 116° |
| 2026-05-05 10:44 | 44.34030 | 26.82834 | 35057 ft | 460 kts | 117° |
| 2026-05-05 10:44 | 44.30921 | 26.90637 | 35051 ft | 460 kts | 117° |
| 2026-05-05 10:45 | 44.27801 | 26.98440 | 35047 ft | 460 kts | 117° |
| 2026-05-05 10:45 | 44.24665 | 27.06259 | 35043 ft | 461 kts | 117° |
| 2026-05-05 10:46 | 44.21528 | 27.14064 | 35053 ft | 461 kts | 117° |
| 2026-05-05 10:46 | 44.18395 | 27.21855 | 35051 ft | 461 kts | 117° |
| 2026-05-05 10:47 | 44.15268 | 27.29613 | 35057 ft | 461 kts | 117° |
| 2026-05-05 10:47 | 44.12123 | 27.37381 | 35075 ft | 460 kts | 118° |
| 2026-05-05 10:48 | 44.08975 | 27.45132 | 35079 ft | 459 kts | 118° |
| 2026-05-05 10:48 | 44.05829 | 27.52846 | 35077 ft | 458 kts | 118° |
| 2026-05-05 10:49 | 44.02683 | 27.60548 | 35073 ft | 457 kts | 118° |
| 2026-05-05 10:49 | 43.99538 | 27.68233 | 35080 ft | 456 kts | 118° |
| 2026-05-05 10:50 | 43.96402 | 27.75881 | 35082 ft | 455 kts | 118° |
| 2026-05-05 10:50 | 43.93263 | 27.83509 | 35080 ft | 454 kts | 118° |
| 2026-05-05 10:51 | 43.90143 | 27.91066 | 35079 ft | 454 kts | 118° |
| 2026-05-05 10:51 | 43.87008 | 27.98651 | 35086 ft | 453 kts | 118° |
| 2026-05-05 10:52 | 43.83865 | 28.06220 | 35086 ft | 452 kts | 118° |
| 2026-05-05 10:52 | 43.80714 | 28.13781 | 35086 ft | 452 kts | 118° |
| 2026-05-05 10:53 | 43.77572 | 28.21316 | 35096 ft | 452 kts | 118° |
| 2026-05-05 10:53 | 43.74425 | 28.28861 | 35082 ft | 452 kts | 118° |
| 2026-05-05 10:54 | 43.71303 | 28.36332 | 35086 ft | 451 kts | 118° |
| 2026-05-05 10:54 | 43.68150 | 28.43837 | 35084 ft | 451 kts | 119° |
| 2026-05-05 10:55 | 43.65518 | 28.50075 | 35096 ft | 451 kts | 118° |
| 2026-05-05 10:55 | 43.62350 | 28.57563 | 35091 ft | 452 kts | 118° |
| 2026-05-05 10:56 | 43.59181 | 28.65052 | 35087 ft | 452 kts | 118° |
| 2026-05-05 10:56 | 43.56008 | 28.72538 | 35092 ft | 452 kts | 119° |
| 2026-05-05 10:57 | 43.52820 | 28.80023 | 35100 ft | 452 kts | 119° |
| 2026-05-05 10:57 | 43.49628 | 28.87497 | 35097 ft | 453 kts | 119° |
| 2026-05-05 10:58 | 43.46422 | 28.94982 | 35096 ft | 453 kts | 119° |
| 2026-05-05 10:58 | 43.43220 | 29.02457 | 35096 ft | 453 kts | 119° |
| 2026-05-05 10:59 | 43.40032 | 29.09865 | 35101 ft | 453 kts | 119° |
| 2026-05-05 10:59 | 43.36808 | 29.17332 | 35100 ft | 453 kts | 119° |
| 2026-05-05 11:00 | 43.33580 | 29.24804 | 35096 ft | 453 kts | 119° |
| 2026-05-05 11:00 | 43.30363 | 29.32248 | 35096 ft | 453 kts | 119° |
| 2026-05-05 11:01 | 43.27147 | 29.39649 | 35099 ft | 454 kts | 119° |
| 2026-05-05 11:01 | 43.23896 | 29.47094 | 35091 ft | 454 kts | 119° |
| 2026-05-05 11:02 | 43.20647 | 29.54533 | 35090 ft | 454 kts | 119° |
| 2026-05-05 11:02 | 43.17399 | 29.61972 | 35087 ft | 454 kts | 119° |
| 2026-05-05 11:03 | 43.14142 | 29.69403 | 35084 ft | 454 kts | 119° |
| 2026-05-05 11:03 | 43.10889 | 29.76811 | 35084 ft | 454 kts | 119° |
| 2026-05-05 11:04 | 43.07631 | 29.84179 | 35084 ft | 454 kts | 119° |
| 2026-05-05 11:04 | 43.04353 | 29.91595 | 35085 ft | 455 kts | 119° |
| 2026-05-05 11:05 | 43.01068 | 29.99013 | 35076 ft | 455 kts | 119° |
| 2026-05-05 11:05 | 42.97799 | 30.06370 | 35079 ft | 456 kts | 119° |
| 2026-05-05 11:06 | 42.94502 | 30.13763 | 35063 ft | 456 kts | 119° |
| 2026-05-05 11:06 | 42.91200 | 30.21167 | 35069 ft | 457 kts | 119° |
| 2026-05-05 11:07 | 42.87887 | 30.28563 | 35060 ft | 457 kts | 119° |
| 2026-05-05 11:07 | 42.84567 | 30.35958 | 35066 ft | 457 kts | 119° |
| 2026-05-05 11:08 | 42.81241 | 30.43349 | 35076 ft | 458 kts | 119° |
| 2026-05-05 11:08 | 42.77902 | 30.50748 | 35071 ft | 458 kts | 119° |
| 2026-05-05 11:09 | 42.74633 | 30.58191 | 35061 ft | 457 kts | 113° |
| 2026-05-05 11:09 | 42.72593 | 30.66295 | 35063 ft | 452 kts | 102° |
| 2026-05-05 11:10 | 42.70979 | 30.74578 | 35084 ft | 453 kts | 102° |
| 2026-05-05 11:10 | 42.69353 | 30.82844 | 35076 ft | 452 kts | 102° |
| 2026-05-05 11:11 | 42.67742 | 30.91054 | 35071 ft | 452 kts | 102° |
| 2026-05-05 11:11 | 42.66117 | 30.99310 | 35058 ft | 452 kts | 102° |
| 2026-05-05 11:12 | 42.64478 | 31.07560 | 35076 ft | 452 kts | 102° |
| 2026-05-05 11:12 | 42.62825 | 31.15800 | 35069 ft | 452 kts | 102° |
| 2026-05-05 11:13 | 42.61174 | 31.24035 | 35061 ft | 451 kts | 102° |
| 2026-05-05 11:13 | 42.59526 | 31.32266 | 35054 ft | 451 kts | 102° |
| 2026-05-05 11:14 | 42.57879 | 31.40447 | 35074 ft | 451 kts | 101° |
| 2026-05-05 11:14 | 42.56215 | 31.48661 | 35064 ft | 452 kts | 101° |
| 2026-05-05 11:15 | 42.54548 | 31.56883 | 35055 ft | 452 kts | 101° |
| 2026-05-05 11:15 | 42.52873 | 31.65101 | 35049 ft | 452 kts | 102° |
| 2026-05-05 11:16 | 42.51193 | 31.73307 | 35060 ft | 452 kts | 101° |
| 2026-05-05 11:16 | 42.49505 | 31.81476 | 35048 ft | 452 kts | 102° |
| 2026-05-05 11:17 | 42.47800 | 31.89681 | 35039 ft | 452 kts | 102° |
| 2026-05-05 11:17 | 42.46100 | 31.97919 | 35038 ft | 453 kts | 101° |
| 2026-05-05 11:18 | 42.44405 | 32.06129 | 35060 ft | 453 kts | 102° |
| 2026-05-05 11:18 | 42.42698 | 32.14293 | 35055 ft | 452 kts | 102° |
| 2026-05-05 11:19 | 42.40971 | 32.22488 | 35055 ft | 452 kts | 102° |
| 2026-05-05 11:19 | 42.39240 | 32.30664 | 35051 ft | 452 kts | 102° |
| 2026-05-05 11:20 | 42.37510 | 32.38843 | 35068 ft | 452 kts | 102° |
| 2026-05-05 11:20 | 42.35776 | 32.47003 | 35060 ft | 451 kts | 102° |
| 2026-05-05 11:21 | 42.34040 | 32.55154 | 35056 ft | 451 kts | 102° |
| 2026-05-05 11:21 | 42.32797 | 32.63394 | 35056 ft | 446 kts | 94° |
| 2026-05-05 11:22 | 42.31867 | 32.71706 | 35054 ft | 446 kts | 94° |
| 2026-05-05 11:22 | 42.30927 | 32.79940 | 35049 ft | 446 kts | 95° |
| 2026-05-05 11:23 | 42.29976 | 32.88246 | 35047 ft | 446 kts | 95° |
| 2026-05-05 11:23 | 42.29020 | 32.96541 | 35052 ft | 446 kts | 95° |
| 2026-05-05 11:24 | 42.28065 | 33.04824 | 35047 ft | 446 kts | 95° |
| 2026-05-05 11:24 | 42.27109 | 33.13109 | 35056 ft | 447 kts | 95° |
| 2026-05-05 11:25 | 42.26139 | 33.21361 | 35050 ft | 447 kts | 95° |
| 2026-05-05 11:25 | 42.25155 | 33.29650 | 35052 ft | 447 kts | 95° |
| 2026-05-05 11:26 | 42.24170 | 33.37948 | 35051 ft | 447 kts | 95° |
| 2026-05-05 11:26 | 42.23181 | 33.46242 | 35071 ft | 447 kts | 95° |
| 2026-05-05 11:27 | 42.22184 | 33.54531 | 35061 ft | 448 kts | 96° |
| 2026-05-05 11:27 | 42.21180 | 33.62825 | 35051 ft | 448 kts | 96° |
| 2026-05-05 11:28 | 42.20172 | 33.71131 | 35042 ft | 448 kts | 96° |
| 2026-05-05 11:28 | 42.19159 | 33.79429 | 35063 ft | 449 kts | 96° |
| 2026-05-05 11:29 | 42.18136 | 33.87738 | 35051 ft | 450 kts | 96° |
| 2026-05-05 11:29 | 42.17103 | 33.96068 | 35041 ft | 450 kts | 96° |
| 2026-05-05 11:30 | 42.16063 | 34.04397 | 35041 ft | 451 kts | 96° |
| 2026-05-05 11:30 | 42.15029 | 34.12676 | 35029 ft | 451 kts | 96° |
| 2026-05-05 11:31 | 42.13980 | 34.21028 | 35032 ft | 452 kts | 97° |
| 2026-05-05 11:31 | 42.12913 | 34.29393 | 35027 ft | 453 kts | 97° |
| 2026-05-05 11:32 | 42.11845 | 34.37754 | 35038 ft | 453 kts | 97° |
| 2026-05-05 11:32 | 42.10766 | 34.46116 | 35046 ft | 453 kts | 97° |
| 2026-05-05 11:33 | 42.09627 | 34.54445 | 35043 ft | 453 kts | 98° |
| 2026-05-05 11:33 | 42.08647 | 34.61399 | 35034 ft | 454 kts | 99° |
| 2026-05-05 11:34 | 42.07285 | 34.71112 | 35029 ft | 454 kts | 98° |
| 2026-05-05 11:34 | 42.06303 | 34.78118 | 35030 ft | 455 kts | 99° |
| 2026-05-05 11:35 | 42.05130 | 34.86431 | 35040 ft | 455 kts | 99° |
| 2026-05-05 11:35 | 42.03991 | 34.94817 | 35036 ft | 455 kts | 98° |
| 2026-05-05 11:36 | 42.02876 | 35.03217 | 35034 ft | 456 kts | 98° |
| 2026-05-05 11:36 | 42.02091 | 35.11655 | 35035 ft | 454 kts | 92° |
| 2026-05-05 11:37 | 42.01656 | 35.20147 | 35034 ft | 455 kts | 92° |
| 2026-05-05 11:37 | 42.01196 | 35.28630 | 35042 ft | 455 kts | 93° |
| 2026-05-05 11:38 | 42.00731 | 35.37113 | 35040 ft | 455 kts | 93° |
| 2026-05-05 11:38 | 42.00263 | 35.45537 | 35041 ft | 455 kts | 93° |
| 2026-05-05 11:39 | 41.99788 | 35.54025 | 35041 ft | 455 kts | 93° |
| 2026-05-05 11:39 | 41.99314 | 35.62504 | 35045 ft | 455 kts | 93° |
| 2026-05-05 11:40 | 41.98831 | 35.70996 | 35036 ft | 455 kts | 94° |
| 2026-05-05 11:40 | 41.98343 | 35.79493 | 35034 ft | 456 kts | 94° |
| 2026-05-05 11:41 | 41.97848 | 35.87994 | 35033 ft | 456 kts | 94° |
| 2026-05-05 11:41 | 41.97347 | 35.96496 | 35036 ft | 456 kts | 94° |
| 2026-05-05 11:42 | 41.96834 | 36.04984 | 35039 ft | 456 kts | 94° |
| 2026-05-05 11:42 | 41.96318 | 36.13470 | 35041 ft | 456 kts | 94° |
| 2026-05-05 11:43 | 41.95793 | 36.21964 | 35041 ft | 456 kts | 94° |
| 2026-05-05 11:43 | 41.95272 | 36.30392 | 35039 ft | 456 kts | 94° |
| 2026-05-05 11:44 | 41.94737 | 36.38885 | 35039 ft | 456 kts | 95° |
| 2026-05-05 11:44 | 41.94193 | 36.47377 | 35038 ft | 456 kts | 94° |
| 2026-05-05 11:45 | 41.93648 | 36.55858 | 35038 ft | 456 kts | 95° |
| 2026-05-05 11:45 | 41.93086 | 36.64346 | 35036 ft | 456 kts | 95° |
| 2026-05-05 11:46 | 41.92529 | 36.72822 | 35040 ft | 455 kts | 95° |
| 2026-05-05 11:46 | 41.91971 | 36.81303 | 35040 ft | 455 kts | 95° |
| 2026-05-05 11:47 | 41.91402 | 36.89762 | 35039 ft | 455 kts | 95° |
| 2026-05-05 11:47 | 41.90820 | 36.98182 | 35038 ft | 455 kts | 95° |
| 2026-05-05 11:48 | 41.88518 | 37.10473 | 35037 ft | 455 kts | 112° |
| 2026-05-05 11:48 | 41.86058 | 37.18302 | 35033 ft | 455 kts | 113° |
| 2026-05-05 11:49 | 41.83594 | 37.26137 | 35033 ft | 455 kts | 113° |
| 2026-05-05 11:49 | 41.81123 | 37.33956 | 35029 ft | 456 kts | 113° |
| 2026-05-05 11:50 | 41.78637 | 37.41789 | 35031 ft | 456 kts | 113° |
| 2026-05-05 11:50 | 41.76153 | 37.49607 | 35019 ft | 456 kts | 114° |
| 2026-05-05 11:51 | 41.73653 | 37.57439 | 35019 ft | 457 kts | 114° |
| 2026-05-05 11:51 | 41.71158 | 37.65221 | 35022 ft | 458 kts | 114° |
| 2026-05-05 11:52 | 41.68640 | 37.73067 | 35017 ft | 458 kts | 114° |
| 2026-05-05 11:52 | 41.66125 | 37.80915 | 35016 ft | 459 kts | 114° |
| 2026-05-05 11:53 | 41.63604 | 37.88759 | 35020 ft | 459 kts | 114° |
| 2026-05-05 11:53 | 41.61074 | 37.96601 | 35023 ft | 460 kts | 114° |
| 2026-05-05 11:54 | 41.58531 | 38.04450 | 35010 ft | 460 kts | 115° |
| 2026-05-05 11:54 | 41.55978 | 38.12297 | 35013 ft | 460 kts | 115° |
| 2026-05-05 11:55 | 41.53436 | 38.20092 | 35016 ft | 461 kts | 115° |
| 2026-05-05 11:55 | 41.50870 | 38.27926 | 35018 ft | 461 kts | 115° |
| 2026-05-05 11:56 | 41.48297 | 38.35760 | 35017 ft | 461 kts | 116° |
| 2026-05-05 11:56 | 41.45716 | 38.43610 | 35019 ft | 461 kts | 116° |
| 2026-05-05 11:57 | 41.43139 | 38.51430 | 35018 ft | 461 kts | 116° |
| 2026-05-05 11:57 | 41.40553 | 38.59256 | 35014 ft | 461 kts | 116° |
| 2026-05-05 11:58 | 41.37962 | 38.67071 | 35022 ft | 461 kts | 116° |
| 2026-05-05 11:58 | 41.35370 | 38.74869 | 35028 ft | 460 kts | 116° |
| 2026-05-05 11:59 | 41.32772 | 38.82669 | 35044 ft | 460 kts | 116° |
| 2026-05-05 11:59 | 41.30229 | 38.90442 | 35019 ft | 461 kts | 116° |
| 2026-05-05 12:00 | 41.27691 | 38.98265 | 35032 ft | 461 kts | 116° |
| 2026-05-05 12:00 | 41.25126 | 39.06091 | 35031 ft | 461 kts | 116° |
| 2026-05-05 12:01 | 41.22545 | 39.13894 | 35011 ft | 461 kts | 117° |
| 2026-05-05 12:01 | 41.19940 | 39.21667 | 35019 ft | 460 kts | 117° |
| 2026-05-05 12:02 | 41.17241 | 39.29387 | 35010 ft | 460 kts | 118° |
| 2026-05-05 12:02 | 41.14531 | 39.37030 | 35010 ft | 460 kts | 118° |
| 2026-05-05 12:03 | 41.11810 | 39.44730 | 35009 ft | 461 kts | 118° |
| 2026-05-05 12:03 | 41.09108 | 39.52440 | 35002 ft | 460 kts | 118° |
| 2026-05-05 12:04 | 41.06405 | 39.60132 | 35012 ft | 460 kts | 118° |
| 2026-05-05 12:04 | 41.03687 | 39.67822 | 34984 ft | 460 kts | 118° |
| 2026-05-05 12:05 | 41.00963 | 39.75500 | 34988 ft | 461 kts | 118° |
| 2026-05-05 12:05 | 40.98237 | 39.83205 | 34988 ft | 461 kts | 118° |
| 2026-05-05 12:06 | 40.95575 | 39.90936 | 34995 ft | 462 kts | 117° |
| 2026-05-05 12:06 | 40.92934 | 39.98630 | 34990 ft | 462 kts | 118° |
| 2026-05-05 12:07 | 40.90253 | 40.06360 | 35002 ft | 462 kts | 118° |
| 2026-05-05 12:07 | 40.87563 | 40.14083 | 35008 ft | 462 kts | 118° |
| 2026-05-05 12:08 | 40.84871 | 40.21796 | 34989 ft | 462 kts | 118° |
| 2026-05-05 12:08 | 40.82175 | 40.29508 | 34993 ft | 463 kts | 118° |
| 2026-05-05 12:09 | 40.79466 | 40.37227 | 34987 ft | 462 kts | 118° |
| 2026-05-05 12:09 | 40.76761 | 40.44933 | 34989 ft | 463 kts | 118° |
| 2026-05-05 12:10 | 40.74047 | 40.52643 | 34976 ft | 463 kts | 118° |
| 2026-05-05 12:10 | 40.71336 | 40.60299 | 34978 ft | 463 kts | 118° |
| 2026-05-05 12:11 | 40.68598 | 40.68018 | 34963 ft | 463 kts | 118° |
| 2026-05-05 12:11 | 40.65861 | 40.75717 | 34948 ft | 463 kts | 118° |
| 2026-05-05 12:12 | 40.63133 | 40.83367 | 34967 ft | 464 kts | 118° |
| 2026-05-05 12:12 | 40.60382 | 40.91055 | 34951 ft | 463 kts | 118° |
| 2026-05-05 12:13 | 40.58100 | 40.97430 | 34941 ft | 463 kts | 118° |
| 2026-05-05 12:13 | 40.55345 | 41.05099 | 34924 ft | 463 kts | 119° |
| 2026-05-05 12:14 | 40.52594 | 41.12749 | 34921 ft | 463 kts | 119° |
| 2026-05-05 12:14 | 40.49831 | 41.20395 | 34917 ft | 462 kts | 119° |
| 2026-05-05 12:15 | 40.47071 | 41.28037 | 34920 ft | 462 kts | 119° |
| 2026-05-05 12:15 | 40.44310 | 41.35662 | 34911 ft | 462 kts | 119° |
| 2026-05-05 12:16 | 40.41533 | 41.43269 | 34921 ft | 462 kts | 119° |
| 2026-05-05 12:16 | 40.38770 | 41.50833 | 34927 ft | 462 kts | 119° |
| 2026-05-05 12:17 | 40.35990 | 41.58426 | 34913 ft | 462 kts | 120° |
| 2026-05-05 12:17 | 40.33201 | 41.66041 | 34914 ft | 462 kts | 120° |
| 2026-05-05 12:18 | 40.30413 | 41.73633 | 34918 ft | 462 kts | 120° |
| 2026-05-05 12:18 | 40.27619 | 41.81212 | 34918 ft | 462 kts | 120° |
| 2026-05-05 12:19 | 40.24819 | 41.88786 | 34925 ft | 462 kts | 120° |
| 2026-05-05 12:19 | 40.22009 | 41.96353 | 34937 ft | 462 kts | 120° |
| 2026-05-05 12:20 | 40.19189 | 42.03936 | 34948 ft | 462 kts | 120° |
| 2026-05-05 12:20 | 40.16369 | 42.11496 | 34951 ft | 463 kts | 120° |
| 2026-05-05 12:21 | 40.13570 | 42.19006 | 34957 ft | 463 kts | 120° |
| 2026-05-05 12:21 | 40.10743 | 42.26578 | 34958 ft | 462 kts | 120° |
| 2026-05-05 12:22 | 40.07907 | 42.34129 | 34950 ft | 462 kts | 121° |
| 2026-05-05 12:22 | 40.05439 | 42.41906 | 34957 ft | 469 kts | 108° |
| 2026-05-05 12:23 | 40.04884 | 42.50451 | 34968 ft | 479 kts | 89° |
| 2026-05-05 12:23 | 40.05442 | 42.59134 | 34972 ft | 479 kts | 89° |
| 2026-05-05 12:24 | 40.05963 | 42.67821 | 34983 ft | 480 kts | 89° |
| 2026-05-05 12:24 | 40.06479 | 42.76503 | 34965 ft | 480 kts | 89° |
| 2026-05-05 12:25 | 40.06995 | 42.85204 | 34971 ft | 481 kts | 89° |
| 2026-05-05 12:25 | 40.07506 | 42.93922 | 34975 ft | 482 kts | 89° |
| 2026-05-05 12:26 | 40.08025 | 43.02650 | 34979 ft | 482 kts | 89° |
| 2026-05-05 12:26 | 40.08533 | 43.11390 | 34983 ft | 482 kts | 89° |
| 2026-05-05 12:27 | 40.09025 | 43.20069 | 34975 ft | 482 kts | 90° |
| 2026-05-05 12:27 | 40.09516 | 43.28818 | 34954 ft | 484 kts | 90° |
| 2026-05-05 12:28 | 40.10001 | 43.37605 | 34952 ft | 485 kts | 90° |
| 2026-05-05 12:28 | 40.10489 | 43.46393 | 34948 ft | 485 kts | 90° |
| 2026-05-05 12:29 | 40.10962 | 43.55216 | 34936 ft | 486 kts | 90° |
| 2026-05-05 12:29 | 40.11436 | 43.64042 | 34923 ft | 488 kts | 88° |
| 2026-05-05 12:30 | 40.12269 | 43.68335 | 34869 ft | 488 kts | 71° |
| 2026-05-05 12:30 | 40.13639 | 43.72332 | 34285 ft | 476 kts | 67° |
| 2026-05-05 12:30 | 40.15028 | 43.76153 | 34060 ft | 453 kts | 74° |
| 2026-05-05 12:30 | 40.15671 | 43.80039 | 33507 ft | 426 kts | 95° |
| 2026-05-05 12:31 | 40.15586 | 43.83837 | 32773 ft | 414 kts | 100° |
| 2026-05-05 12:31 | 40.15429 | 43.87585 | 32038 ft | 408 kts | 101° |
| 2026-05-05 12:31 | 40.15267 | 43.91231 | 31089 ft | 409 kts | 101° |
| 2026-05-05 12:31 | 40.15092 | 43.94975 | 30030 ft | 413 kts | 101° |
| 2026-05-05 12:32 | 40.14914 | 43.98732 | 28777 ft | 415 kts | 100° |
| 2026-05-05 12:32 | 40.14738 | 44.02507 | 27579 ft | 417 kts | 99° |
| 2026-05-05 12:32 | 40.14369 | 44.06226 | 26418 ft | 408 kts | 111° |
| 2026-05-05 12:32 | 40.13320 | 44.09597 | 25344 ft | 395 kts | 126° |
| 2026-05-05 12:33 | 40.11659 | 44.12377 | 24342 ft | 383 kts | 140° |
| 2026-05-05 12:33 | 40.09541 | 44.14407 | 23359 ft | 372 kts | 157° |
| 2026-05-05 12:33 | 40.07166 | 44.15610 | 22281 ft | 361 kts | 170° |
| 2026-05-05 12:33 | 40.04701 | 44.15992 | 21288 ft | 353 kts | 182° |
| 2026-05-05 12:34 | 40.02290 | 44.15572 | 20379 ft | 348 kts | 196° |
| 2026-05-05 12:34 | 40.00097 | 44.14412 | 20027 ft | 330 kts | 209° |
| 2026-05-05 12:34 | 39.98279 | 44.12768 | 19881 ft | 309 kts | 220° |
| 2026-05-05 12:34 | 39.96863 | 44.10798 | 19884 ft | 286 kts | 232° |
| 2026-05-05 12:35 | 39.95852 | 44.08651 | 19882 ft | 274 kts | 242° |
| 2026-05-05 12:35 | 39.95196 | 44.06362 | 19885 ft | 273 kts | 253° |
| 2026-05-05 12:35 | 39.94879 | 44.03919 | 19892 ft | 275 kts | 263° |
| 2026-05-05 12:35 | 39.94820 | 44.01426 | 19892 ft | 276 kts | 268° |
| 2026-05-05 12:36 | 39.94884 | 43.98923 | 19893 ft | 277 kts | 270° |
| 2026-05-05 12:36 | 39.94997 | 43.96413 | 19893 ft | 277 kts | 270° |
| 2026-05-05 12:36 | 39.95118 | 43.93909 | 19894 ft | 276 kts | 270° |
| 2026-05-05 12:36 | 39.95235 | 43.91417 | 19811 ft | 277 kts | 270° |
| 2026-05-05 12:37 | 39.95344 | 43.88866 | 19101 ft | 285 kts | 270° |
| 2026-05-05 12:37 | 39.95490 | 43.86255 | 18372 ft | 293 kts | 276° |
| 2026-05-05 12:37 | 39.95969 | 43.83635 | 17548 ft | 302 kts | 288° |
| 2026-05-05 12:37 | 39.96868 | 43.81125 | 16691 ft | 310 kts | 300° |
| 2026-05-05 12:38 | 39.98197 | 43.78865 | 15833 ft | 319 kts | 313° |
| 2026-05-05 12:38 | 39.99928 | 43.77001 | 14980 ft | 326 kts | 327° |
| 2026-05-05 12:38 | 40.01974 | 43.75686 | 14126 ft | 332 kts | 340° |
| 2026-05-05 12:38 | 40.04238 | 43.75011 | 13228 ft | 336 kts | 354° |
| 2026-05-05 12:39 | 40.06583 | 43.75037 | 12290 ft | 338 kts | 8° |
| 2026-05-05 12:39 | 40.08857 | 43.75774 | 11399 ft | 337 kts | 21° |
| 2026-05-05 12:39 | 40.10927 | 43.77185 | 10529 ft | 337 kts | 36° |
| 2026-05-05 12:39 | 40.12676 | 43.79193 | 9651 ft | 334 kts | 50° |
| 2026-05-05 12:40 | 40.14004 | 43.81649 | 8728 ft | 329 kts | 63° |
| 2026-05-05 12:40 | 40.14839 | 43.84378 | 8211 ft | 313 kts | 77° |
| 2026-05-05 12:40 | 40.15187 | 43.87027 | 8049 ft | 287 kts | 87° |
| 2026-05-05 12:40 | 40.15258 | 43.89531 | 7925 ft | 264 kts | 91° |
| 2026-05-05 12:41 | 40.15209 | 43.91845 | 7870 ft | 242 kts | 95° |
| 2026-05-05 12:41 | 40.15120 | 43.93986 | 7868 ft | 235 kts | 95° |
| 2026-05-05 12:41 | 40.15020 | 43.96119 | 7860 ft | 234 kts | 96° |
| 2026-05-05 12:41 | 40.14924 | 43.98222 | 7861 ft | 230 kts | 95° |
| 2026-05-05 12:42 | 40.14835 | 44.00287 | 7860 ft | 229 kts | 95° |
| 2026-05-05 12:42 | 40.14751 | 44.02367 | 7858 ft | 229 kts | 95° |
| 2026-05-05 12:42 | 40.14673 | 44.04454 | 7760 ft | 232 kts | 95° |
| 2026-05-05 12:42 | 40.14581 | 44.06570 | 7415 ft | 233 kts | 95° |
| 2026-05-05 12:43 | 40.14522 | 44.08692 | 7094 ft | 233 kts | 91° |
| 2026-05-05 12:43 | 40.14527 | 44.10810 | 6773 ft | 233 kts | 90° |
| 2026-05-05 12:43 | 40.14546 | 44.12939 | 6465 ft | 235 kts | 90° |
| 2026-05-05 12:43 | 40.14564 | 44.15080 | 6154 ft | 236 kts | 91° |
| 2026-05-05 12:44 | 40.14580 | 44.17227 | 5841 ft | 236 kts | 90° |
| 2026-05-05 12:44 | 40.14596 | 44.19369 | 5520 ft | 233 kts | 91° |
| 2026-05-05 12:44 | 40.14611 | 44.21449 | 5237 ft | 224 kts | 89° |
| 2026-05-05 12:44 | 40.14625 | 44.23436 | 4945 ft | 211 kts | 89° |
| 2026-05-05 12:45 | 40.14638 | 44.25245 | 4712 ft | 192 kts | 89° |
| 2026-05-05 12:45 | 40.14649 | 44.26909 | 4474 ft | 172 kts | 89° |
| 2026-05-05 12:45 | 40.14662 | 44.28401 | 4183 ft | 158 kts | 89° |
| 2026-05-05 12:45 | 40.14667 | 44.29787 | 3965 ft | 147 kts | 89° |
| 2026-05-05 12:46 | 40.14673 | 44.31112 | 3783 ft | 144 kts | 89° |
| 2026-05-05 12:46 | 40.14683 | 44.32415 | 3614 ft | 142 kts | 88° |
| 2026-05-05 12:46 | 40.14693 | 44.33714 | 3415 ft | 143 kts | 90° |
| 2026-05-05 12:46 | 40.14701 | 44.35010 | 3206 ft | 142 kts | 88° |
| 2026-05-05 12:47 | 40.14707 | 44.36297 | 2996 ft | 141 kts | 88° |
| 2026-05-05 12:47 | 40.14716 | 44.37561 | 2823 ft | 138 kts | 88° |
| 2026-05-05 12:47 | 40.14731 | 44.38675 | 2813 ft | 105 kts | 89° |
| 2026-05-05 12:47 | 40.14733 | 44.39457 | 2815 ft | 67 kts | 90° |
| 2026-05-05 12:48 | 40.14732 | 44.39895 | 2820 ft | 26 kts | 90° |
| 2026-05-05 12:48 | 40.14811 | 44.40028 | 2823 ft | 19 kts | 359° |
| 2026-05-05 12:48 | 40.14884 | 44.40026 | 2821 ft | 9 kts | 360° |
| 2026-05-05 12:48 | 40.14950 | 44.40022 | 2822 ft | 9 kts | 346° |
| 2026-05-05 12:49 | 40.14981 | 44.39962 | 2821 ft | 8 kts | 275° |
| 2026-05-05 12:49 | 40.15018 | 44.39936 | 2822 ft | 6 kts | 1° |
| 2026-05-05 12:49 | 40.15057 | 44.39935 | 2821 ft | 5 kts | 359° |
| 2026-05-05 12:49 | 40.15087 | 44.39935 | 2820 ft | 4 kts | 360° |
| 2026-05-05 12:50 | 40.15098 | 44.39935 | 2821 ft | 0 kts | 360° |